首页
METAR-TAF:

METAR-TAF

机场 :

Cayo Coco, 古巴

纬度: 22-27-40N, 经度: 078-19-42W, 海拔: 4米

当前天气观测

该预报发布于42分钟前的19:50 UTC
风速11节,风向,在北转西北东北之间变化
温度 24°C
湿度 41%
气压 1019 hPa
能見度: 9000
少量云层高于2000英尺

METAR: MUCC 211950Z 01011KT 340V050 9000 FEW020 24/10 Q1019

时间: 15:32 (20:32 UTC)

预报

该预报发布于3小时和32分钟前的17:00 UTC
预报有效从21日的 18点(UTC)到 22日的 18点(UTC)
风速11节,风向
能見度: 9000
散云层高于2000英尺
成为
从 22日的 01点(UTC)到 22日的 04点(UTC)
风速6节,风向
成为
从 22日的 13点(UTC)到 22日的 15点(UTC)
风速10节,风向东北

TAF: MUCC 211700Z 2118/2218 01011KT 9000 SCT020 BECMG 2201/2204 01006KT BECMG 2213/2215 04010KT

超过4000个机场的气象观测和天气预报(METAR&TAF报告)。

可查询的气象台以黄色和红色小点在地图上表示。

将鼠标移到小点上方,可查看气象台名称。

然后点击查看天气观测和预报。

如需切换地图:点击带黑十字的绿色按钮放大地图;点击带横线的绿色按钮缩小地图;或者点击绿色箭头查看邻近地区的地图。


METAR-TAF: